Time;durP1;ratioP1;P1;durP2;ratioP2;P2;SDS_P1;SDS_P2;PMS_P1;PMS_P2;Temp;Humidity;BMP_temperature;BMP_pressure;BME280_temperature;BME280_humidity;BME280_pressure;Samples;Min_cycle;Max_cycle;Signal;HPM_P1;HPM_P2
2023/01/28 00:01:16;;;;;;;15.97;9.33;;;2.40;99.90;;;;;;4903712;29;20568;-90
2023/01/28 00:03:42;;;;;;;16.10;9.50;;;2.30;99.90;;;;;;4901736;29;20080;-87
2023/01/28 00:06:14;;;;;;;16.20;9.53;;;3.10;99.90;;;;;;4902416;29;20063;-87
2023/01/28 00:08:55;;;;;;;17.83;9.67;;;3.00;99.90;;;;;;4905330;29;20108;-87
2023/01/28 00:11:21;;;;;;;15.80;9.30;;;2.80;99.90;;;;;;4918993;29;20107;-88
2023/01/28 00:13:59;;;;;;;15.80;9.43;;;2.20;99.90;;;;;;4918736;29;20073;-88
2023/01/28 00:16:26;;;;;;;16.00;9.17;;;3.20;99.90;;;;;;4918293;29;20087;-88
2023/01/28 00:19:04;;;;;;;16.43;9.63;;;1.40;99.90;;;;;;4901130;29;20048;-87
2023/01/28 00:21:30;;;;;;;17.37;10.03;;;0.30;99.90;;;;;;4901527;29;20052;-87
2023/01/28 00:23:56;;;;;;;16.43;10.20;;;2.10;99.90;;;;;;4905617;29;20068;-88
2023/01/28 00:26:35;;;;;;;16.50;10.10;;;1.60;99.90;;;;;;4920933;29;20397;-88
2023/01/28 00:29:21;;;;;;;16.77;9.97;;;1.60;99.90;;;;;;4929566;23;20048;-87
2023/01/28 00:31:47;;;;;;;16.77;10.17;;;3.00;99.90;;;;;;4929862;23;20048;-88
2023/01/28 00:34:28;;;;;;;16.80;10.30;;;1.40;99.90;;;;;;4917689;29;20048;-88
2023/01/28 00:36:56;;;;;;;17.33;10.63;;;3.10;99.90;;;;;;4901752;29;20048;-87
2023/01/28 00:39:34;;;;;;;16.63;10.80;;;2.80;99.90;;;;;;4917776;29;20071;-87
2023/01/28 00:41:59;;;;;;;15.43;10.40;;;2.10;99.90;;;;;;4900992;29;20044;-88
2023/01/28 00:44:26;;;;;;;16.50;10.60;;;1.40;99.90;;;;;;4917821;29;20044;-88
2023/01/28 00:47:04;;;;;;;17.10;10.70;;;2.40;99.90;;;;;;4899834;29;20060;-87
2023/01/28 00:49:48;;;;;;;16.87;10.40;;;1.40;99.90;;;;;;4901237;29;20048;-87
2023/01/28 00:52:13;;;;;;;;;;;2.00;99.90;;;;;;4917946;29;20048;-87
2023/01/28 00:54:39;;;;;;;16.83;10.53;;;1.30;99.90;;;;;;4901071;29;19923;-87
2023/01/28 00:57:06;;;;;;;16.57;11.00;;;2.20;99.90;;;;;;4941231;23;20063;-88
2023/01/28 00:59:41;;;;;;;15.50;10.30;;;2.70;99.90;;;;;;4900352;29;20048;-87
2023/01/28 01:02:22;;;;;;;15.67;9.90;;;2.80;99.90;;;;;;4900310;29;20142;-87
2023/01/28 01:04:57;;;;;;;14.97;9.53;;;1.40;99.90;;;;;;4905767;29;20044;-87
2023/01/28 01:07:40;;;;;;;14.20;9.37;;;1.40;99.90;;;;;;4917173;29;20083;-88
2023/01/28 01:10:12;;;;;;;15.00;9.20;;;1.30;99.90;;;;;;4917512;29;20048;-87
2023/01/28 01:12:53;;;;;;;13.50;8.80;;;1.20;99.90;;;;;;4933416;28;20105;-87
2023/01/28 01:15:19;;;;;;;14.03;9.10;;;1.30;99.90;;;;;;4920956;29;20064;-87
2023/01/28 01:21:28;;;;;;;13.93;8.60;;;1.40;99.90;;;;;;4917433;29;20062;-87
2023/01/28 01:23:54;;;;;;;13.83;9.13;;;2.80;99.90;;;;;;4899890;29;20059;-88
2023/01/28 01:26:20;;;;;;;13.60;9.07;;;2.20;99.90;;;;;;4916501;29;20056;-87
2023/01/28 01:29:01;;;;;;;14.00;9.40;;;2.70;99.90;;;;;;4900531;29;20049;-87
2023/01/28 01:31:26;;;;;;;13.60;9.20;;;1.20;99.90;;;;;;4900337;29;20087;-87
2023/01/28 01:33:52;;;;;;;14.37;8.93;;;3.00;99.90;;;;;;4916508;29;20068;-87
2023/01/28 01:36:19;;;;;;;13.83;9.00;;;2.90;99.90;;;;;;4917546;29;20091;-87
2023/01/28 01:39:00;;;;;;;13.87;9.27;;;1.70;99.90;;;;;;4917850;29;20047;-87
2023/01/28 01:41:46;;;;;;;13.63;8.83;;;0.20;99.90;;;;;;4916907;29;20056;-88
2023/01/28 01:44:49;;;;;;;12.43;8.00;;;0.40;99.90;;;;;;4902592;29;20036;-88
2023/01/28 01:47:17;;;;;;;12.57;8.10;;;1.30;99.90;;;;;;4920102;29;20048;-87
2023/01/28 01:50:02;;;;;;;13.37;8.17;;;1.70;99.90;;;;;;4900118;29;20130;-88
2023/01/28 01:52:33;;;;;;;14.93;8.57;;;2.00;99.90;;;;;;4901022;29;20052;-87
2023/01/28 01:55:18;;;;;;;12.67;8.00;;;2.70;99.90;;;;;;4918633;29;20392;-87
2023/01/28 01:58:05;;;;;;;12.93;7.70;;;0.30;99.90;;;;;;4921329;29;20413;-87
2023/01/28 02:00:49;;;;;;;12.50;8.07;;;0.70;99.90;;;;;;4900476;29;20120;-87
2023/01/28 02:03:18;;;;;;;12.30;8.20;;;2.00;99.90;;;;;;4899904;29;20059;-87
2023/01/28 02:05:44;;;;;;;12.97;8.43;;;0.70;99.90;;;;;;4912293;29;20048;-88
2023/01/28 02:08:25;;;;;;;12.13;8.33;;;2.90;99.90;;;;;;4900296;29;20059;-87
2023/01/28 02:11:14;;;;;;;13.03;8.20;;;0.70;99.90;;;;;;4917042;29;20048;-87
2023/01/28 02:13:50;;;;;;;13.63;8.90;;;0.70;99.90;;;;;;4917178;29;20055;-87
2023/01/28 02:16:34;;;;;;;13.90;8.57;;;1.10;99.90;;;;;;4899747;29;20437;-87
2023/01/28 02:19:12;;;;;;;;;;;0.80;99.90;;;;;;4903766;29;20056;-87
2023/01/28 02:22:10;;;;;;;12.90;8.07;;;1.10;99.90;;;;;;4882606;29;19931;-87
2023/01/28 02:24:44;;;;;;;13.77;8.27;;;1.00;99.90;;;;;;4880700;29;20056;-88
2023/01/28 02:27:56;;;;;;;13.77;8.13;;;0.90;99.90;;;;;;4897679;29;20533;-87
2023/01/28 02:30:27;;;;;;;12.27;7.57;;;1.10;99.90;;;;;;4880275;29;20064;-90
2023/01/28 02:33:38;;;;;;;12.77;7.47;;;1.00;99.90;;;;;;4881180;29;20393;-87
2023/01/28 02:36:34;;;;;;;13.50;7.63;;;0.30;99.90;;;;;;4837419;29;20067;-87
2023/01/28 02:39:20;;;;;;;11.63;7.07;;;1.50;99.90;;;;;;4880299;29;20049;-87
2023/01/28 02:41:52;;;;;;;12.40;7.17;;;2.00;99.90;;;;;;4880809;29;20049;-88
2023/01/28 02:44:18;;;;;;;13.07;7.33;;;0.60;99.90;;;;;;4880309;29;20066;-87
2023/01/28 02:50:02;;;;;;;11.55;6.68;;;1.90;99.90;;;;;;4880423;29;20108;-88
2023/01/28 02:56:11;;;;;;;12.87;7.30;;;0.30;99.90;;;;;;4893824;29;20065;-88
2023/01/28 02:58:59;;;;;;;13.00;6.80;;;0.20;99.90;;;;;;4880426;29;20080;-88
2023/01/28 03:01:32;;;;;;;12.20;6.87;;;0.90;99.90;;;;;;4929274;28;20036;-87
2023/01/28 03:04:21;;;;;;;12.35;6.88;;;1.50;99.90;;;;;;4913062;29;20044;-87
2023/01/28 03:06:50;;;;;;;12.80;6.80;;;0.50;99.90;;;;;;4902635;29;20059;-88
2023/01/28 03:09:36;;;;;;;12.60;6.60;;;0.60;99.90;;;;;;4900036;29;20044;-88
2023/01/28 03:38:32;;;;;;;11.90;6.03;;;0.80;99.90;;;;;;4911501;23;20119;-88
2023/01/28 03:41:21;;;;;;;11.37;5.90;;;0.20;99.90;;;;;;4957159;23;20095;-88
2023/01/28 03:43:47;;;;;;;11.40;5.97;;;0.70;99.90;;;;;;4904526;29;20248;-88
2023/01/28 03:46:13;;;;;;;11.97;6.43;;;-0.10;99.90;;;;;;4902595;29;20481;-88
2023/01/28 03:48:57;;;;;;;12.73;6.33;;;0.70;99.90;;;;;;4901874;29;20134;-87
2023/01/28 03:51:22;;;;;;;12.10;6.40;;;0.40;99.90;;;;;;4902666;29;20055;-87
2023/01/28 03:54:08;;;;;;;11.57;6.20;;;0.50;99.90;;;;;;4901983;29;20044;-88
2023/01/28 03:56:38;;;;;;;11.90;6.60;;;1.40;99.90;;;;;;4901765;29;20111;-88
2023/01/28 03:59:20;;;;;;;12.17;6.03;;;0.40;99.90;;;;;;4902152;29;20135;-87
2023/01/28 04:01:46;;;;;;;11.60;6.13;;;0.60;99.90;;;;;;4901693;29;20048;-88
2023/01/28 04:04:21;;;;;;;11.93;6.67;;;1.30;99.90;;;;;;4901896;29;20396;-87
2023/01/28 04:07:07;;;;;;;12.00;6.10;;;1.70;99.90;;;;;;4927608;28;20032;-88
2023/01/28 04:09:36;;;;;;;11.80;6.47;;;1.90;99.90;;;;;;4911688;29;20044;-87
2023/01/28 04:12:12;;;;;;;12.43;6.60;;;2.60;99.90;;;;;;4919044;29;20048;-88
2023/01/28 04:14:39;;;;;;;11.97;6.30;;;0.90;99.90;;;;;;4902047;29;20072;-88
2023/01/28 04:17:18;;;;;;;12.30;5.90;;;2.00;99.90;;;;;;4900933;29;20048;-88
2023/01/28 04:19:44;;;;;;;12.60;6.40;;;1.00;99.90;;;;;;4901968;29;20075;-88
2023/01/28 04:22:11;;;;;;;12.40;5.83;;;0.60;99.90;;;;;;4907054;23;20099;-87
2023/01/28 04:25:27;;;;;;;12.70;6.43;;;0.40;99.90;;;;;;4901538;29;20126;-87
2023/01/28 04:27:52;;;;;;;11.50;6.27;;;0.60;99.90;;;;;;4900577;29;20063;-88
2023/01/28 04:30:40;;;;;;;11.93;6.23;;;0.80;99.90;;;;;;4918049;29;20388;-87
2023/01/28 04:33:05;;;;;;;12.00;6.33;;;0.90;99.90;;;;;;4918038;29;20137;-88
2023/01/28 04:35:46;;;;;;;11.67;6.30;;;1.50;99.90;;;;;;4918127;29;20052;-87
2023/01/28 04:38:12;;;;;;;11.70;6.20;;;1.80;99.90;;;;;;4953744;23;20048;-87
2023/01/28 04:40:37;;;;;;;12.03;6.37;;;1.70;99.90;;;;;;4901355;29;20102;-88
2023/01/28 04:43:21;;;;;;;13.53;6.63;;;0.40;99.90;;;;;;4918367;29;20091;-87
2023/01/28 04:46:02;;;;;;;14.90;6.80;;;0.40;99.90;;;;;;4931623;28;20615;-88
2023/01/28 04:48:30;;;;;;;12.80;6.53;;;0.30;99.90;;;;;;4901868;29;20048;-88
2023/01/28 04:50:55;;;;;;;11.70;6.33;;;0.50;99.90;;;;;;4906803;23;20064;-87
2023/01/28 04:53:36;;;;;;;12.40;6.57;;;0.40;99.90;;;;;;4901551;29;20110;-87
2023/01/28 04:56:02;;;;;;;12.37;6.73;;;-0.10;99.90;;;;;;4917945;29;20059;-88
2023/01/28 04:58:27;;;;;;;11.37;5.83;;;0.70;99.90;;;;;;4900779;29;20051;-87
2023/01/28 05:01:12;;;;;;;12.30;6.10;;;0.60;99.90;;;;;;4900532;29;20059;-88
2023/01/28 05:03:40;;;;;;;12.87;6.83;;;0.50;99.90;;;;;;4900635;29;20513;-87
2023/01/28 05:06:26;;;;;;;12.30;7.20;;;0.50;99.90;;;;;;4919906;29;20059;-87
2023/01/28 05:08:52;;;;;;;11.73;6.17;;;0.70;99.90;;;;;;4900521;29;20496;-88
2023/01/28 05:11:17;;;;;;;11.77;6.50;;;0.40;99.90;;;;;;4918357;29;20051;-87
2023/01/28 05:14:02;;;;;;;13.17;6.30;;;1.00;99.90;;;;;;4921240;29;20498;-88
2023/01/28 05:16:27;;;;;;;11.90;6.13;;;1.70;99.90;;;;;;4901064;29;20058;-88
2023/01/28 05:18:53;;;;;;;12.73;6.73;;;0.40;99.90;;;;;;4899912;29;20403;-88
2023/01/28 05:21:19;;;;;;;13.37;6.83;;;0.40;99.90;;;;;;4933727;29;20032;-88
2023/01/28 05:23:59;;;;;;;13.20;6.73;;;0.40;99.90;;;;;;4920387;29;20485;-88
2023/01/28 05:26:25;;;;;;;12.03;6.57;;;2.70;99.90;;;;;;4917727;29;20044;-88
2023/01/28 05:29:06;;;;;;;11.87;6.70;;;0.40;99.90;;;;;;4901177;29;20183;-88
2023/01/28 05:31:32;;;;;;;11.23;6.13;;;2.40;99.90;;;;;;4901207;29;20062;-88
2023/01/28 05:33:58;;;;;;;11.53;6.27;;;1.90;99.90;;;;;;4898032;29;20553;-88
2023/01/28 05:36:44;;;;;;;12.93;6.70;;;1.80;99.90;;;;;;4917473;29;20083;-88
2023/01/28 05:39:10;;;;;;;11.40;6.20;;;0.50;99.90;;;;;;4917057;29;20496;-88
2023/01/28 05:41:51;;;;;;;14.03;6.93;;;1.60;99.90;;;;;;4899551;29;20052;-88
2023/01/28 05:44:17;;;;;;;12.00;6.50;;;0.60;99.90;;;;;;4900403;29;20052;-88
2023/01/28 05:46:45;;;;;;;12.53;6.80;;;1.00;99.90;;;;;;4899650;29;20135;-88
2023/01/28 05:49:17;;;;;;;12.50;6.60;;;0.30;99.90;;;;;;4916764;29;20052;-88
2023/01/28 05:51:55;;;;;;;12.43;6.63;;;1.20;99.90;;;;;;4881394;29;20045;-88
2023/01/28 05:54:21;;;;;;;12.17;6.60;;;1.90;99.90;;;;;;4880503;29;20501;-88
2023/01/28 05:56:47;;;;;;;11.47;6.37;;;0.30;99.90;;;;;;4881799;29;20049;-88
2023/01/28 05:59:28;;;;;;;15.27;7.00;;;0.40;99.90;;;;;;4905116;29;20060;-88
2023/01/28 06:01:53;;;;;;;12.87;6.87;;;0.30;99.90;;;;;;4897187;29;20060;-88
2023/01/28 06:04:19;;;;;;;13.13;6.60;;;0.40;99.90;;;;;;4881577;29;20082;-88
2023/01/28 06:06:45;;;;;;;13.17;6.70;;;0.40;99.90;;;;;;4915153;23;20059;-88
2023/01/28 06:09:28;;;;;;;12.80;7.27;;;0.60;99.90;;;;;;4938083;28;20062;-88
2023/01/28 06:12:20;;;;;;;14.47;7.20;;;0.60;99.90;;;;;;4914820;29;20131;-88
2023/01/28 06:15:01;;;;;;;12.43;6.93;;;3.00;99.90;;;;;;4884845;29;20130;-88
2023/01/28 06:17:27;;;;;;;13.43;6.90;;;0.50;99.90;;;;;;4900108;29;20048;-88
2023/01/28 06:19:52;;;;;;;12.57;6.83;;;0.30;99.90;;;;;;4916522;29;20051;-88
2023/01/28 06:22:32;;;;;;;12.60;7.20;;;0.20;99.90;;;;;;4930147;23;20064;-88
2023/01/28 06:24:58;;;;;;;12.13;6.63;;;1.90;99.90;;;;;;4899159;29;20512;-88
2023/01/28 06:27:30;;;;;;;16.47;7.20;;;1.10;99.90;;;;;;4900014;29;20044;-87
2023/01/28 06:30:14;;;;;;;13.07;7.23;;;1.50;99.90;;;;;;4898824;29;20194;-88
2023/01/28 06:32:39;;;;;;;13.40;6.68;;;0.20;99.90;;;;;;4899882;29;20048;-87
2023/01/28 06:35:21;;;;;;;12.77;6.80;;;1.50;99.90;;;;;;4903011;29;20048;-88
2023/01/28 06:37:46;;;;;;;13.10;6.87;;;0.40;99.90;;;;;;4899114;29;20188;-88
2023/01/28 06:40:12;;;;;;;12.70;6.80;;;1.40;99.90;;;;;;4916746;29;20116;-88
2023/01/28 06:42:53;;;;;;;13.37;7.03;;;0.20;99.90;;;;;;4919835;29;20501;-88
2023/01/28 06:45:18;;;;;;;13.23;6.60;;;0.10;99.90;;;;;;4900049;29;20191;-88
2023/01/28 06:47:44;;;;;;;12.53;6.73;;;0.20;99.90;;;;;;4903401;29;20135;-88
2023/01/28 06:50:22;;;;;;;13.67;7.00;;;0.20;99.90;;;;;;4922489;29;20441;-88
2023/01/28 06:52:48;;;;;;;12.27;6.73;;;1.30;99.90;;;;;;4920037;29;20048;-88
2023/01/28 06:55:13;;;;;;;12.43;7.03;;;0.70;99.90;;;;;;4903419;29;20055;-87
2023/01/28 06:57:40;;;;;;;13.10;7.50;;;0.20;99.90;;;;;;4919705;29;20047;-88
2023/01/28 07:00:21;;;;;;;19.90;8.33;;;0.40;99.90;;;;;;4920021;29;20083;-88
2023/01/28 07:02:46;;;;;;;13.33;7.60;;;0.40;99.90;;;;;;4919688;29;20075;-88
2023/01/28 07:05:12;;;;;;;13.20;7.03;;;0.20;99.90;;;;;;4902731;29;20040;-88
2023/01/28 07:07:54;;;;;;;14.40;7.23;;;1.40;99.90;;;;;;4903075;29;20052;-88
2023/01/28 07:10:20;;;;;;;12.73;6.80;;;0.10;99.90;;;;;;4904900;29;20036;-88
2023/01/28 07:12:45;;;;;;;14.03;6.93;;;0.30;99.90;;;;;;4907133;29;20114;-88
2023/01/28 07:15:26;;;;;;;12.33;6.10;;;0.20;99.90;;;;;;4920574;29;20044;-88
2023/01/28 07:17:52;;;;;;;12.63;6.87;;;1.20;99.90;;;;;;4905767;29;20044;-88
2023/01/28 07:20:18;;;;;;;12.87;6.73;;;1.60;99.90;;;;;;4902162;29;20095;-88
2023/01/28 07:23:03;;;;;;;14.43;6.73;;;0.50;99.90;;;;;;4902792;29;20401;-88
2023/01/28 07:25:29;;;;;;;13.30;6.90;;;1.20;99.90;;;;;;4902004;29;20107;-88
2023/01/28 07:27:55;;;;;;;16.90;8.53;;;0.30;99.90;;;;;;4919601;29;20091;-88
2023/01/28 07:30:40;;;;;;;16.53;8.70;;;2.20;99.90;;;;;;4902602;29;20511;-88
2023/01/28 07:33:21;;;;;;;16.60;8.30;;;0.40;99.90;;;;;;4918165;29;20079;-88
2023/01/28 07:35:47;;;;;;;16.20;7.77;;;2.10;99.90;;;;;;4902419;29;20052;-88
2023/01/28 07:38:13;;;;;;;14.97;8.23;;;1.90;99.90;;;;;;4919388;29;20108;-88
2023/01/28 07:40:58;;;;;;;14.57;7.90;;;0.10;99.90;;;;;;4901964;29;20055;-87
2023/01/28 07:43:23;;;;;;;17.23;8.23;;;0.60;99.90;;;;;;4919513;29;20072;-86
2023/01/28 07:46:02;;;;;;;15.60;8.47;;;0.70;99.90;;;;;;4918803;29;20048;-86
2023/01/28 07:48:45;;;;;;;15.67;8.43;;;1.30;99.90;;;;;;4918437;29;20504;-87
2023/01/28 07:51:11;;;;;;;16.45;9.02;;;2.10;99.90;;;;;;4901506;29;20119;-84
2023/01/28 07:53:56;;;;;;;16.03;8.67;;;0.50;99.90;;;;;;4901585;29;20480;-84
2023/01/28 07:56:28;;;;;;;14.57;8.40;;;1.20;99.90;;;;;;4918379;29;20080;-84
2023/01/28 07:59:12;;;;;;;15.53;8.27;;;0.40;99.90;;;;;;4900687;29;20052;-83
2023/01/28 08:01:37;;;;;;;16.63;8.53;;;0.60;99.90;;;;;;4900321;29;20107;-83
2023/01/28 08:04:22;;;;;;;16.13;8.97;;;0.90;99.90;;;;;;4900800;29;20131;-84
2023/01/28 08:07:06;;;;;;;;;;;0.60;99.90;;;;;;4901667;29;20068;-84
2023/01/28 08:09:50;;;;;;;17.20;8.80;;;0.80;99.90;;;;;;4900707;29;19931;-84
2023/01/28 08:12:27;;;;;;;16.63;9.03;;;0.90;99.90;;;;;;4918168;29;20044;-85
2023/01/28 08:15:04;;;;;;;17.83;8.73;;;0.20;99.90;;;;;;4901802;29;20396;-82
2023/01/28 08:17:49;;;;;;;17.00;9.60;;;0.50;99.90;;;;;;4909839;29;20489;-83
2023/01/28 08:20:36;;;;;;;17.27;9.20;;;2.30;99.90;;;;;;4908497;29;20055;-83
2023/01/28 08:23:25;;;;;;;16.13;8.97;;;1.80;99.90;;;;;;4916801;29;20094;-83
2023/01/28 08:25:52;;;;;;;16.57;8.50;;;0.80;99.90;;;;;;4927150;29;20052;-83
2023/01/28 08:28:33;;;;;;;18.30;9.20;;;1.80;99.90;;;;;;4889596;29;20501;-83
2023/01/28 08:31:17;;;;;;;14.90;8.30;;;1.50;99.90;;;;;;4900760;29;20047;-82
2023/01/28 08:33:42;;;;;;;;;;;2.80;99.90;;;;;;4900837;29;20055;-82
2023/01/28 08:36:17;;;;;;;14.67;8.30;;;0.60;99.90;;;;;;4916604;29;20005;-83
2023/01/28 08:38:43;;;;;;;15.27;8.60;;;0.30;99.90;;;;;;4917646;29;20048;-83
2023/01/28 08:41:28;;;;;;;17.07;9.03;;;0.80;99.90;;;;;;4916700;29;20048;-83
2023/01/28 08:44:00;;;;;;;15.23;8.53;;;0.50;99.90;;;;;;4885697;29;20052;-84
2023/01/28 08:46:34;;;;;;;15.93;9.00;;;1.80;99.90;;;;;;4900393;29;20480;-83
2023/01/28 08:49:03;;;;;;;19.50;9.37;;;2.40;99.90;;;;;;4900294;29;20166;-83
2023/01/28 08:51:31;;;;;;;17.10;9.20;;;3.80;99.90;;;;;;4916483;29;20476;-83
2023/01/28 08:54:01;;;;;;;17.10;9.43;;;1.50;99.90;;;;;;4899687;29;20052;-83
2023/01/28 08:56:47;;;;;;;16.80;9.20;;;2.10;99.90;;;;;;4900161;29;20072;-83
2023/01/28 08:59:13;;;;;;;17.47;9.87;;;0.80;99.90;;;;;;4917984;29;20131;-83
2023/01/28 09:01:39;;;;;;;16.60;9.33;;;0.40;99.90;;;;;;4906719;29;20099;-82
2023/01/28 09:04:05;;;;;;;16.50;9.57;;;1.00;99.90;;;;;;4910980;29;20532;-84
2023/01/28 09:06:34;;;;;;;17.20;8.87;;;0.50;99.90;;;;;;4900143;29;20135;-84
2023/01/28 09:09:00;;;;;;;16.20;9.13;;;0.60;99.90;;;;;;4916512;29;20051;-83
2023/01/28 09:11:42;;;;;;;16.70;9.57;;;0.70;99.90;;;;;;4898922;29;20563;-83
2023/01/28 09:14:13;;;;;;;17.53;9.23;;;2.70;99.90;;;;;;4899971;29;20040;-84
2023/01/28 09:16:39;;;;;;;17.93;9.93;;;2.60;99.90;;;;;;4899750;29;20531;-84
2023/01/28 09:19:09;;;;;;;17.53;10.13;;;1.80;99.90;;;;;;4915881;29;20048;-84
2023/01/28 09:21:37;;;;;;;18.80;10.10;;;1.20;99.90;;;;;;4927363;29;20028;-84
2023/01/28 09:24:15;;;;;;;35.10;25.37;;;0.80;99.90;;;;;;4919776;29;20051;-83
2023/01/28 09:26:40;;;;;;;38.07;30.30;;;1.30;99.90;;;;;;4901851;29;20108;-84
2023/01/28 09:29:06;;;;;;;29.00;21.17;;;0.80;99.90;;;;;;4900948;29;20052;-84
2023/01/28 09:31:32;;;;;;;17.67;10.60;;;1.60;99.90;;;;;;4916576;29;20044;-84
2023/01/28 09:34:00;;;;;;;19.23;12.60;;;1.70;99.90;;;;;;4897073;29;20131;-83
2023/01/28 09:36:57;;;;;;;17.37;9.93;;;1.30;99.90;;;;;;4899881;29;20055;-83
2023/01/28 09:39:41;;;;;;;16.23;9.65;;;1.60;99.90;;;;;;4871828;29;20087;-85
2023/01/28 09:43:02;;;;;;;15.77;9.60;;;1.50;99.90;;;;;;4915242;29;20526;-84
2023/01/28 09:45:51;;;;;;;16.63;9.60;;;1.90;99.90;;;;;;4895760;29;20048;-84
2023/01/28 09:48:42;;;;;;;16.43;9.53;;;0.30;99.90;;;;;;4901397;29;20505;-85
2023/01/28 09:51:42;;;;;;;18.23;12.67;;;2.00;99.90;;;;;;4889732;29;20619;-84
2023/01/28 09:55:10;;;;;;;18.57;11.20;;;4.00;99.90;;;;;;4897301;29;20060;-82
2023/01/28 09:57:46;;;;;;;17.07;9.27;;;2.10;99.90;;;;;;4854809;29;20533;-81
2023/01/28 10:00:18;;;;;;;15.70;9.20;;;2.10;99.90;;;;;;4915625;23;20526;-83
2023/01/28 10:02:50;;;;;;;15.30;8.70;;;2.20;99.90;;;;;;4899542;29;20520;-82
2023/01/28 10:05:22;;;;;;;17.27;9.30;;;1.90;99.90;;;;;;4899268;29;20506;-83
2023/01/28 10:08:07;;;;;;;17.73;10.60;;;2.70;99.90;;;;;;4898394;29;20093;-83
2023/01/28 10:10:58;;;;;;;17.17;8.77;;;2.40;99.90;;;;;;4888802;29;20063;-82
2023/01/28 10:13:39;;;;;;;17.30;9.57;;;2.30;99.90;;;;;;4898992;29;20048;-82
2023/01/28 10:16:36;;;;;;;17.17;10.47;;;2.60;99.90;;;;;;4924339;29;20071;-83
2023/01/28 10:19:42;;;;;;;17.70;10.23;;;2.50;99.90;;;;;;4899713;29;20048;-82
2023/01/28 10:22:25;;;;;;;16.07;9.10;;;2.50;99.90;;;;;;4883348;29;20084;-83
2023/01/28 10:25:05;;;;;;;17.27;9.10;;;2.30;99.90;;;;;;4915908;29;20052;-84
2023/01/28 10:27:45;;;;;;;18.90;9.17;;;2.90;99.90;;;;;;4915954;29;20048;-83
2023/01/28 10:30:35;;;;;;;17.00;9.10;;;3.30;99.90;;;;;;4898089;29;20048;-84
2023/01/28 10:33:44;;;;;;;18.03;9.10;;;2.20;99.90;;;;;;4898920;29;20040;-84
2023/01/28 10:36:10;;;;;;;16.47;9.33;;;2.50;99.90;;;;;;4898216;29;20099;-84
2023/01/28 10:38:54;;;;;;;16.57;9.60;;;2.50;99.90;;;;;;4898888;29;20056;-84
2023/01/28 10:41:22;;;;;;;17.70;9.85;;;3.10;99.90;;;;;;4887989;29;20381;-83
2023/01/28 10:44:17;;;;;;;18.30;9.53;;;3.20;99.90;;;;;;4898976;29;20449;-84
2023/01/28 10:47:09;;;;;;;15.40;9.17;;;3.20;99.90;;;;;;4898770;29;20048;-84
2023/01/28 10:50:01;;;;;;;16.17;8.70;;;3.60;99.90;;;;;;4906191;29;20091;-84
2023/01/28 10:53:14;;;;;;;18.30;9.27;;;3.20;99.90;;;;;;4899841;29;20079;-83
2023/01/28 10:56:14;;;;;;;14.97;7.57;;;4.70;99.90;;;;;;4896797;29;20103;-84
2023/01/28 10:59:17;;;;;;;17.17;9.43;;;3.10;99.90;;;;;;4897955;29;20107;-84
2023/01/28 11:05:32;;;;;;;15.07;7.67;;;2.70;99.90;;;;;;4914909;29;20111;-84
2023/01/28 11:08:17;;;;;;;15.53;8.13;;;3.00;99.90;;;;;;4898271;29;20204;-84
2023/01/28 11:10:44;;;;;;;16.90;9.40;;;2.60;99.90;;;;;;4898007;29;20058;-85
2023/01/28 11:13:20;;;;;;;17.73;9.97;;;3.30;99.90;;;;;;4915585;29;20119;-84
2023/01/28 11:15:51;;;;;;;17.37;9.77;;;2.80;99.90;;;;;;4916269;29;20036;-84
2023/01/28 11:18:40;;;;;;;18.23;8.80;;;2.80;99.90;;;;;;4902324;29;20055;-84
2023/01/28 11:21:32;;;;;;;16.20;8.53;;;3.00;99.90;;;;;;4898523;29;20051;-85
2023/01/28 11:23:59;;;;;;;17.00;8.53;;;3.00;99.90;;;;;;4918538;29;20063;-85
2023/01/28 11:26:48;;;;;;;16.33;8.27;;;2.00;99.90;;;;;;4916848;29;20048;-85
2023/01/28 11:29:39;;;;;;;14.87;8.10;;;3.80;99.90;;;;;;4915709;29;20048;-85
2023/01/28 11:32:33;;;;;;;14.10;7.37;;;4.10;99.90;;;;;;4910444;29;20098;-85
2023/01/28 11:34:59;;;;;;;13.57;7.38;;;4.20;99.90;;;;;;4901740;29;20111;-85
2023/01/28 11:37:47;;;;;;;14.77;7.37;;;3.40;99.90;;;;;;4902367;29;20518;-82
2023/01/28 11:40:39;;;;;;;14.47;7.30;;;5.20;99.90;;;;;;4898888;29;20044;-83
2023/01/28 11:43:07;;;;;;;12.93;7.00;;;4.20;99.90;;;;;;4916685;29;20060;-82
2023/01/28 11:45:58;;;;;;;15.17;8.30;;;3.90;99.90;;;;;;4918454;29;20190;-82
2023/01/28 11:48:38;;;;;;;15.43;7.77;;;4.50;99.90;;;;;;4919138;29;20501;-83
2023/01/28 11:51:41;;;;;;;15.77;8.07;;;5.50;99.90;;;;;;4919043;29;20068;-82
2023/01/28 11:57:58;;;;;;;13.50;7.20;;;3.40;99.90;;;;;;4918891;29;20083;-85
2023/01/28 12:00:42;;;;;;;14.10;7.37;;;4.70;99.90;;;;;;4918481;29;20052;-84
2023/01/28 12:04:06;;;;;;;15.03;7.10;;;3.80;99.90;;;;;;4918650;29;20052;-85
2023/01/28 12:07:30;;;;;;;13.90;6.73;;;2.90;99.90;;;;;;4808160;29;20058;-87
2023/01/28 12:10:22;;;;;;;14.53;7.07;;;4.60;99.90;;;;;;4825613;29;20073;-87
2023/01/28 12:13:25;;;;;;;13.77;7.37;;;5.00;99.90;;;;;;4829236;29;20057;-87
2023/01/28 12:15:58;;;;;;;13.77;7.50;;;4.20;99.90;;;;;;4901231;29;20044;-84
2023/01/28 12:19:20;;;;;;;12.87;6.97;;;3.90;99.90;;;;;;4917308;29;20059;-85
2023/01/28 12:22:20;;;;;;;12.30;6.57;;;5.20;99.90;;;;;;4911844;29;20037;-84
2023/01/28 12:25:01;;;;;;;13.87;6.73;;;5.10;99.90;;;;;;4915448;29;20131;-85
2023/01/28 12:28:09;;;;;;;14.13;6.67;;;5.00;99.90;;;;;;4916094;29;20032;-85
2023/01/28 12:34:14;;;;;;;13.80;6.97;;;4.50;99.90;;;;;;4915558;29;20127;-85
2023/01/28 12:37:30;;;;;;;13.07;6.93;;;4.50;99.90;;;;;;4881330;29;20048;-85
2023/01/28 12:40:14;;;;;;;15.10;6.80;;;4.40;99.90;;;;;;4899056;29;20386;-85
2023/01/28 12:46:32;;;;;;;13.63;7.03;;;5.20;99.90;;;;;;4848712;29;20058;-86
2023/01/28 12:49:59;;;;;;;13.30;7.20;;;5.70;99.90;;;;;;4843484;29;20045;-84
2023/01/28 12:52:51;;;;;;;13.23;6.70;;;5.00;99.90;;;;;;4923283;29;20044;-84
2023/01/28 12:55:48;;;;;;;13.57;7.23;;;4.20;99.90;;;;;;4937461;29;20078;-84
2023/01/28 12:58:41;;;;;;;13.90;7.13;;;4.30;99.90;;;;;;4919637;29;20047;-84
2023/01/28 13:01:12;;;;;;;15.00;7.45;;;3.30;99.90;;;;;;4936947;29;20074;-84
2023/01/28 13:04:30;;;;;;;14.43;7.50;;;5.80;99.90;;;;;;4918669;29;20059;-84
2023/01/28 13:07:16;;;;;;;12.57;6.53;;;5.60;99.90;;;;;;4936568;29;20043;-85
2023/01/28 13:10:10;;;;;;;13.40;6.87;;;4.60;99.90;;;;;;4918942;29;20043;-84
2023/01/28 13:12:57;;;;;;;14.10;7.20;;;4.00;99.90;;;;;;4887567;29;20110;-84
2023/01/28 13:15:24;;;;;;;15.27;6.80;;;2.70;99.90;;;;;;4919441;29;20054;-84
2023/01/28 13:18:05;;;;;;;14.63;7.17;;;4.00;99.90;;;;;;4917947;29;20043;-84
2023/01/28 13:20:55;;;;;;;12.83;7.13;;;5.20;99.90;;;;;;4936351;29;20060;-84
2023/01/28 13:23:44;;;;;;;13.50;7.23;;;3.60;99.90;;;;;;4936120;29;20094;-83
2023/01/28 13:26:42;;;;;;;13.73;6.73;;;3.90;99.90;;;;;;4913288;29;20063;-83
2023/01/28 13:29:13;;;;;;;13.77;6.57;;;4.70;99.90;;;;;;4909751;29;20074;-83
2023/01/28 13:32:18;;;;;;;12.93;6.10;;;6.60;99.90;;;;;;4909642;29;20075;-83
2023/01/28 13:35:03;;;;;;;15.50;6.22;;;5.90;99.90;;;;;;4892195;29;20052;-83
2023/01/28 13:37:52;;;;;;;13.40;6.33;;;6.20;99.90;;;;;;4927635;29;20118;-83
2023/01/28 13:40:25;;;;;;;13.83;6.83;;;5.00;99.90;;;;;;4910265;29;20039;-83
2023/01/28 13:43:38;;;;;;;59.17;23.38;;;5.10;99.90;;;;;;4908419;29;20505;-83
2023/01/28 13:46:11;;;;;;;50.10;20.13;;;5.20;99.90;;;;;;4915821;29;20535;-81
2023/01/28 13:48:57;;;;;;;26.60;11.87;;;5.20;99.90;;;;;;4899693;29;20051;-81
2023/01/28 13:51:29;;;;;;;14.83;7.77;;;4.90;99.90;;;;;;4900053;29;20551;-80
2023/01/28 13:53:57;;;;;;;17.17;9.40;;;5.10;99.90;;;;;;4915813;29;20058;-83
2023/01/28 13:56:39;;;;;;;12.43;6.17;;;5.20;99.90;;;;;;4917009;29;20076;-84
2023/01/28 13:59:31;;;;;;;22.63;10.10;;;5.10;99.90;;;;;;4905158;29;20160;-82
2023/01/28 14:02:35;;;;;;;24.27;11.87;;;5.10;99.90;;;;;;4911803;29;20103;-82
2023/01/28 14:05:28;;;;;;;53.28;26.88;;;5.10;99.90;;;;;;4905582;29;20067;-81
2023/01/28 14:08:03;;;;;;;12.37;6.03;;;5.00;99.90;;;;;;4911214;29;20519;-82
2023/01/28 14:10:42;;;;;;;16.13;8.00;;;4.80;99.90;;;;;;4909380;29;20413;-84
2023/01/28 14:13:36;;;;;;;13.60;6.83;;;5.00;99.90;;;;;;4909766;29;20055;-84
2023/01/28 14:16:18;;;;;;;14.55;7.30;;;4.90;99.90;;;;;;4926723;29;20090;-84
2023/01/28 14:18:46;;;;;;;18.27;11.60;;;5.10;99.90;;;;;;4910641;29;20098;-83
2023/01/28 14:21:18;;;;;;;15.87;8.20;;;5.20;99.90;;;;;;4907730;29;20054;-84
2023/01/28 14:23:47;;;;;;;15.70;8.27;;;5.10;99.90;;;;;;4908857;29;20059;-84
2023/01/28 14:26:18;;;;;;;12.10;5.90;;;5.20;99.90;;;;;;4907479;29;20404;-84
2023/01/28 14:29:28;;;;;;;17.40;10.70;;;5.10;99.90;;;;;;4908173;29;20050;-84
2023/01/28 14:31:54;;;;;;;15.10;7.50;;;4.90;99.90;;;;;;4896261;29;20104;-82
2023/01/28 14:34:29;;;;;;;18.10;9.17;;;4.70;99.90;;;;;;4908300;29;20449;-82
2023/01/28 14:37:00;;;;;;;15.90;7.57;;;4.60;99.90;;;;;;4907117;29;20051;-82
2023/01/28 14:39:28;;;;;;;26.23;12.97;;;4.40;99.90;;;;;;4908373;29;20087;-81